sensor_id;sensor_type;location;lat;lon;timestamp;P1;durP1;ratioP1;P2;durP2;ratioP2
27857;SDS011;16852;51.446;6.528;2023-03-01T00:00:24;6.18;;;3.83;;
27857;SDS011;16852;51.446;6.528;2023-03-01T00:02:25;6.82;;;3.78;;
27857;SDS011;16852;51.446;6.528;2023-03-01T00:04:25;13.68;;;4.65;;
27857;SDS011;16852;51.446;6.528;2023-03-01T00:06:27;6.23;;;3.80;;
27857;SDS011;16852;51.446;6.528;2023-03-01T00:08:28;5.60;;;3.83;;
27857;SDS011;16852;51.446;6.528;2023-03-01T00:10:29;7.27;;;4.50;;
27857;SDS011;16852;51.446;6.528;2023-03-01T00:12:31;6.07;;;3.38;;
27857;SDS011;16852;51.446;6.528;2023-03-01T00:14:31;6.90;;;4.25;;
27857;SDS011;16852;51.446;6.528;2023-03-01T00:16:36;5.25;;;3.72;;
27857;SDS011;16852;51.446;6.528;2023-03-01T00:18:39;6.22;;;3.90;;
27857;SDS011;16852;51.446;6.528;2023-03-01T00:20:40;7.60;;;3.83;;
27857;SDS011;16852;51.446;6.528;2023-03-01T00:22:40;8.30;;;4.28;;
27857;SDS011;16852;51.446;6.528;2023-03-01T00:24:41;5.63;;;3.97;;
27857;SDS011;16852;51.446;6.528;2023-03-01T00:26:41;6.72;;;4.07;;
27857;SDS011;16852;51.446;6.528;2023-03-01T00:28:42;8.05;;;4.35;;
27857;SDS011;16852;51.446;6.528;2023-03-01T00:30:44;5.68;;;4.03;;
27857;SDS011;16852;51.446;6.528;2023-03-01T00:32:44;8.27;;;4.65;;
27857;SDS011;16852;51.446;6.528;2023-03-01T00:34:45;9.90;;;4.47;;
27857;SDS011;16852;51.446;6.528;2023-03-01T00:36:53;7.10;;;4.07;;
27857;SDS011;16852;51.446;6.528;2023-03-01T00:38:54;6.28;;;4.03;;
27857;SDS011;16852;51.446;6.528;2023-03-01T00:40:55;7.15;;;4.03;;
27857;SDS011;16852;51.446;6.528;2023-03-01T00:43:06;9.18;;;4.53;;
27857;SDS011;16852;51.446;6.528;2023-03-01T00:45:07;8.27;;;4.20;;
27857;SDS011;16852;51.446;6.528;2023-03-01T00:47:08;7.75;;;4.50;;
27857;SDS011;16852;51.446;6.528;2023-03-01T00:49:08;7.10;;;4.32;;
27857;SDS011;16852;51.446;6.528;2023-03-01T00:51:13;8.18;;;4.32;;
27857;SDS011;16852;51.446;6.528;2023-03-01T00:53:18;7.88;;;4.38;;
27857;SDS011;16852;51.446;6.528;2023-03-01T00:55:18;8.40;;;4.47;;
27857;SDS011;16852;51.446;6.528;2023-03-01T00:57:19;5.35;;;3.90;;
27857;SDS011;16852;51.446;6.528;2023-03-01T00:59:19;7.22;;;4.43;;
27857;SDS011;16852;51.446;6.528;2023-03-01T01:01:21;6.38;;;4.15;;
27857;SDS011;16852;51.446;6.528;2023-03-01T01:03:23;7.07;;;4.40;;
27857;SDS011;16852;51.446;6.528;2023-03-01T01:05:24;7.57;;;4.30;;
27857;SDS011;16852;51.446;6.528;2023-03-01T01:07:25;8.35;;;4.50;;
27857;SDS011;16852;51.446;6.528;2023-03-01T01:09:26;6.72;;;3.97;;
27857;SDS011;16852;51.446;6.528;2023-03-01T01:11:27;7.18;;;4.50;;
27857;SDS011;16852;51.446;6.528;2023-03-01T01:15:32;9.45;;;4.82;;
27857;SDS011;16852;51.446;6.528;2023-03-01T01:17:34;9.70;;;4.70;;
27857;SDS011;16852;51.446;6.528;2023-03-01T01:19:35;6.50;;;4.00;;
27857;SDS011;16852;51.446;6.528;2023-03-01T01:21:35;8.35;;;4.63;;
27857;SDS011;16852;51.446;6.528;2023-03-01T01:23:36;6.10;;;4.13;;
27857;SDS011;16852;51.446;6.528;2023-03-01T01:25:38;7.25;;;4.03;;
27857;SDS011;16852;51.446;6.528;2023-03-01T01:27:38;6.28;;;4.03;;
27857;SDS011;16852;51.446;6.528;2023-03-01T01:29:39;7.80;;;4.03;;
27857;SDS011;16852;51.446;6.528;2023-03-01T01:31:40;7.97;;;3.72;;
27857;SDS011;16852;51.446;6.528;2023-03-01T01:33:41;6.85;;;4.30;;
27857;SDS011;16852;51.446;6.528;2023-03-01T01:35:44;7.88;;;4.28;;
27857;SDS011;16852;51.446;6.528;2023-03-01T01:37:45;7.82;;;3.50;;
27857;SDS011;16852;51.446;6.528;2023-03-01T01:39:45;8.10;;;3.72;;
27857;SDS011;16852;51.446;6.528;2023-03-01T01:41:46;7.05;;;4.22;;
27857;SDS011;16852;51.446;6.528;2023-03-01T01:48:36;5.47;;;3.60;;
27857;SDS011;16852;51.446;6.528;2023-03-01T01:50:59;8.43;;;4.38;;
27857;SDS011;16852;51.446;6.528;2023-03-01T01:53:00;5.47;;;3.90;;
27857;SDS011;16852;51.446;6.528;2023-03-01T01:55:11;6.15;;;4.07;;
27857;SDS011;16852;51.446;6.528;2023-03-01T01:57:21;10.35;;;4.45;;
27857;SDS011;16852;51.446;6.528;2023-03-01T01:59:26;9.20;;;4.00;;
27857;SDS011;16852;51.446;6.528;2023-03-01T02:01:28;9.85;;;5.07;;
27857;SDS011;16852;51.446;6.528;2023-03-01T02:03:30;6.47;;;4.57;;
27857;SDS011;16852;51.446;6.528;2023-03-01T02:07:47;8.18;;;4.38;;
27857;SDS011;16852;51.446;6.528;2023-03-01T02:09:49;7.15;;;4.05;;
27857;SDS011;16852;51.446;6.528;2023-03-01T02:11:52;7.57;;;4.18;;
27857;SDS011;16852;51.446;6.528;2023-03-01T02:13:54;7.43;;;4.57;;
27857;SDS011;16852;51.446;6.528;2023-03-01T02:15:54;7.22;;;4.55;;
27857;SDS011;16852;51.446;6.528;2023-03-01T02:17:55;6.97;;;4.72;;
27857;SDS011;16852;51.446;6.528;2023-03-01T02:20:03;7.38;;;4.25;;
27857;SDS011;16852;51.446;6.528;2023-03-01T02:22:21;9.33;;;5.07;;
27857;SDS011;16852;51.446;6.528;2023-03-01T02:24:34;6.78;;;4.30;;
27857;SDS011;16852;51.446;6.528;2023-03-01T02:26:47;8.23;;;4.80;;
27857;SDS011;16852;51.446;6.528;2023-03-01T02:28:49;10.30;;;5.38;;
27857;SDS011;16852;51.446;6.528;2023-03-01T02:30:50;7.18;;;4.88;;
27857;SDS011;16852;51.446;6.528;2023-03-01T02:33:11;8.75;;;5.10;;
27857;SDS011;16852;51.446;6.528;2023-03-01T02:35:13;7.82;;;4.60;;
27857;SDS011;16852;51.446;6.528;2023-03-01T02:37:15;7.38;;;4.40;;
27857;SDS011;16852;51.446;6.528;2023-03-01T02:39:29;8.52;;;4.65;;
27857;SDS011;16852;51.446;6.528;2023-03-01T02:41:36;9.27;;;5.10;;
27857;SDS011;16852;51.446;6.528;2023-03-01T02:43:39;10.70;;;5.55;;
27857;SDS011;16852;51.446;6.528;2023-03-01T02:45:42;8.32;;;5.18;;
27857;SDS011;16852;51.446;6.528;2023-03-01T02:47:56;9.15;;;4.65;;
27857;SDS011;16852;51.446;6.528;2023-03-01T02:49:57;9.35;;;5.00;;
27857;SDS011;16852;51.446;6.528;2023-03-01T02:54:25;7.10;;;4.70;;
27857;SDS011;16852;51.446;6.528;2023-03-01T02:56:36;10.10;;;5.15;;
27857;SDS011;16852;51.446;6.528;2023-03-01T02:58:37;7.15;;;4.93;;
27857;SDS011;16852;51.446;6.528;2023-03-01T03:00:45;7.68;;;4.30;;
27857;SDS011;16852;51.446;6.528;2023-03-01T03:02:48;7.30;;;5.25;;
27857;SDS011;16852;51.446;6.528;2023-03-01T03:04:50;8.55;;;5.03;;
27857;SDS011;16852;51.446;6.528;2023-03-01T03:06:50;7.55;;;4.85;;
27857;SDS011;16852;51.446;6.528;2023-03-01T03:08:51;7.45;;;4.70;;
27857;SDS011;16852;51.446;6.528;2023-03-01T03:10:51;6.57;;;4.20;;
27857;SDS011;16852;51.446;6.528;2023-03-01T03:12:53;8.23;;;4.97;;
27857;SDS011;16852;51.446;6.528;2023-03-01T03:14:56;6.10;;;4.43;;
27857;SDS011;16852;51.446;6.528;2023-03-01T03:16:57;9.15;;;5.07;;
27857;SDS011;16852;51.446;6.528;2023-03-01T03:18:57;7.60;;;4.78;;
27857;SDS011;16852;51.446;6.528;2023-03-01T03:21:08;7.82;;;5.20;;
27857;SDS011;16852;51.446;6.528;2023-03-01T03:23:12;10.20;;;4.97;;
27857;SDS011;16852;51.446;6.528;2023-03-01T03:25:13;8.90;;;4.72;;
27857;SDS011;16852;51.446;6.528;2023-03-01T03:27:14;8.10;;;5.55;;
27857;SDS011;16852;51.446;6.528;2023-03-01T03:29:14;10.38;;;5.40;;
27857;SDS011;16852;51.446;6.528;2023-03-01T03:31:15;9.93;;;5.70;;
27857;SDS011;16852;51.446;6.528;2023-03-01T03:33:15;8.50;;;5.35;;
27857;SDS011;16852;51.446;6.528;2023-03-01T03:35:16;8.50;;;5.35;;
27857;SDS011;16852;51.446;6.528;2023-03-01T03:37:16;10.40;;;5.93;;
27857;SDS011;16852;51.446;6.528;2023-03-01T03:39:49;7.85;;;4.97;;
27857;SDS011;16852;51.446;6.528;2023-03-01T03:41:54;8.55;;;5.03;;
27857;SDS011;16852;51.446;6.528;2023-03-01T03:43:55;7.95;;;5.10;;
27857;SDS011;16852;51.446;6.528;2023-03-01T03:45:55;8.65;;;4.72;;
27857;SDS011;16852;51.446;6.528;2023-03-01T03:47:57;10.30;;;5.10;;
27857;SDS011;16852;51.446;6.528;2023-03-01T03:49:57;8.68;;;4.88;;
27857;SDS011;16852;51.446;6.528;2023-03-01T03:51:58;9.27;;;5.50;;
27857;SDS011;16852;51.446;6.528;2023-03-01T03:53:58;9.93;;;5.22;;
27857;SDS011;16852;51.446;6.528;2023-03-01T03:55:59;7.97;;;5.07;;
27857;SDS011;16852;51.446;6.528;2023-03-01T03:58:00;9.68;;;5.20;;
27857;SDS011;16852;51.446;6.528;2023-03-01T04:00:10;7.60;;;5.07;;
27857;SDS011;16852;51.446;6.528;2023-03-01T04:02:14;12.43;;;5.57;;
27857;SDS011;16852;51.446;6.528;2023-03-01T04:04:21;9.48;;;5.68;;
27857;SDS011;16852;51.446;6.528;2023-03-01T04:06:22;7.78;;;4.90;;
27857;SDS011;16852;51.446;6.528;2023-03-01T04:08:23;10.80;;;5.18;;
27857;SDS011;16852;51.446;6.528;2023-03-01T04:10:23;10.20;;;5.25;;
27857;SDS011;16852;51.446;6.528;2023-03-01T04:12:24;8.70;;;5.05;;
27857;SDS011;16852;51.446;6.528;2023-03-01T04:14:25;9.88;;;5.57;;
27857;SDS011;16852;51.446;6.528;2023-03-01T04:16:25;6.75;;;4.82;;
27857;SDS011;16852;51.446;6.528;2023-03-01T04:18:26;11.52;;;5.85;;
27857;SDS011;16852;51.446;6.528;2023-03-01T04:20:28;8.65;;;5.30;;
27857;SDS011;16852;51.446;6.528;2023-03-01T04:22:31;10.25;;;5.80;;
27857;SDS011;16852;51.446;6.528;2023-03-01T04:24:32;8.77;;;5.45;;
27857;SDS011;16852;51.446;6.528;2023-03-01T04:26:32;9.52;;;5.53;;
27857;SDS011;16852;51.446;6.528;2023-03-01T04:28:34;8.93;;;5.38;;
27857;SDS011;16852;51.446;6.528;2023-03-01T04:30:37;9.18;;;5.60;;
27857;SDS011;16852;51.446;6.528;2023-03-01T04:32:38;8.48;;;5.15;;
27857;SDS011;16852;51.446;6.528;2023-03-01T04:34:39;9.60;;;5.70;;
27857;SDS011;16852;51.446;6.528;2023-03-01T04:36:39;9.75;;;6.22;;
27857;SDS011;16852;51.446;6.528;2023-03-01T04:38:40;8.38;;;5.28;;
27857;SDS011;16852;51.446;6.528;2023-03-01T04:40:41;9.10;;;5.30;;
27857;SDS011;16852;51.446;6.528;2023-03-01T04:42:43;8.55;;;5.30;;
27857;SDS011;16852;51.446;6.528;2023-03-01T04:44:43;10.00;;;5.30;;
27857;SDS011;16852;51.446;6.528;2023-03-01T04:46:44;9.70;;;5.70;;
27857;SDS011;16852;51.446;6.528;2023-03-01T04:48:48;7.97;;;4.65;;
27857;SDS011;16852;51.446;6.528;2023-03-01T04:50:49;9.75;;;5.38;;
27857;SDS011;16852;51.446;6.528;2023-03-01T04:52:49;8.48;;;5.80;;
27857;SDS011;16852;51.446;6.528;2023-03-01T04:54:50;10.20;;;5.13;;
27857;SDS011;16852;51.446;6.528;2023-03-01T04:56:50;11.70;;;5.65;;
27857;SDS011;16852;51.446;6.528;2023-03-01T04:58:53;10.23;;;5.78;;
27857;SDS011;16852;51.446;6.528;2023-03-01T05:00:54;9.88;;;5.05;;
27857;SDS011;16852;51.446;6.528;2023-03-01T05:02:59;8.50;;;5.25;;
27857;SDS011;16852;51.446;6.528;2023-03-01T05:05:00;8.00;;;5.10;;
27857;SDS011;16852;51.446;6.528;2023-03-01T05:07:01;11.77;;;5.88;;
27857;SDS011;16852;51.446;6.528;2023-03-01T05:09:01;10.98;;;5.90;;
27857;SDS011;16852;51.446;6.528;2023-03-01T05:11:02;7.95;;;5.28;;
27857;SDS011;16852;51.446;6.528;2023-03-01T05:13:03;8.02;;;4.80;;
27857;SDS011;16852;51.446;6.528;2023-03-01T05:15:04;8.32;;;4.95;;
27857;SDS011;16852;51.446;6.528;2023-03-01T05:19:07;7.32;;;4.88;;
27857;SDS011;16852;51.446;6.528;2023-03-01T05:21:15;7.07;;;4.63;;
27857;SDS011;16852;51.446;6.528;2023-03-01T05:23:16;8.02;;;5.30;;
27857;SDS011;16852;51.446;6.528;2023-03-01T05:25:17;10.23;;;4.97;;
27857;SDS011;16852;51.446;6.528;2023-03-01T05:27:17;8.65;;;5.03;;
27857;SDS011;16852;51.446;6.528;2023-03-01T05:29:19;8.95;;;5.35;;
27857;SDS011;16852;51.446;6.528;2023-03-01T05:31:24;8.45;;;5.22;;
27857;SDS011;16852;51.446;6.528;2023-03-01T05:33:25;8.88;;;5.57;;
27857;SDS011;16852;51.446;6.528;2023-03-01T05:35:27;10.20;;;5.70;;
27857;SDS011;16852;51.446;6.528;2023-03-01T05:37:27;11.93;;;5.68;;
27857;SDS011;16852;51.446;6.528;2023-03-01T05:39:29;8.68;;;5.03;;
27857;SDS011;16852;51.446;6.528;2023-03-01T05:41:30;10.32;;;5.25;;
27857;SDS011;16852;51.446;6.528;2023-03-01T05:43:31;11.45;;;5.70;;
27857;SDS011;16852;51.446;6.528;2023-03-01T05:45:35;8.90;;;4.95;;
27857;SDS011;16852;51.446;6.528;2023-03-01T05:47:38;10.10;;;5.40;;
27857;SDS011;16852;51.446;6.528;2023-03-01T05:49:43;9.27;;;5.20;;
27857;SDS011;16852;51.446;6.528;2023-03-01T05:51:47;7.90;;;5.18;;
27857;SDS011;16852;51.446;6.528;2023-03-01T05:53:50;10.75;;;5.57;;
27857;SDS011;16852;51.446;6.528;2023-03-01T05:55:50;6.78;;;4.80;;
27857;SDS011;16852;51.446;6.528;2023-03-01T05:57:51;8.82;;;5.13;;
27857;SDS011;16852;51.446;6.528;2023-03-01T05:59:52;9.35;;;5.13;;
27857;SDS011;16852;51.446;6.528;2023-03-01T06:01:52;7.75;;;4.55;;
27857;SDS011;16852;51.446;6.528;2023-03-01T06:03:53;8.48;;;5.53;;
27857;SDS011;16852;51.446;6.528;2023-03-01T06:05:57;8.00;;;5.03;;
27857;SDS011;16852;51.446;6.528;2023-03-01T06:07:59;8.45;;;5.32;;
27857;SDS011;16852;51.446;6.528;2023-03-01T06:10:00;9.35;;;5.50;;
27857;SDS011;16852;51.446;6.528;2023-03-01T06:12:01;9.68;;;5.45;;
27857;SDS011;16852;51.446;6.528;2023-03-01T06:14:02;11.63;;;6.10;;
27857;SDS011;16852;51.446;6.528;2023-03-01T06:16:04;9.73;;;5.93;;
27857;SDS011;16852;51.446;6.528;2023-03-01T06:18:06;11.40;;;6.60;;
27857;SDS011;16852;51.446;6.528;2023-03-01T06:20:28;12.27;;;6.38;;
27857;SDS011;16852;51.446;6.528;2023-03-01T06:22:28;10.48;;;5.97;;
27857;SDS011;16852;51.446;6.528;2023-03-01T06:24:28;9.18;;;5.72;;
27857;SDS011;16852;51.446;6.528;2023-03-01T06:26:29;11.43;;;5.93;;
27857;SDS011;16852;51.446;6.528;2023-03-01T06:28:30;9.82;;;6.30;;
27857;SDS011;16852;51.446;6.528;2023-03-01T06:30:30;9.65;;;6.15;;
27857;SDS011;16852;51.446;6.528;2023-03-01T06:32:31;10.18;;;5.78;;
27857;SDS011;16852;51.446;6.528;2023-03-01T06:34:32;11.02;;;6.22;;
27857;SDS011;16852;51.446;6.528;2023-03-01T06:36:33;10.23;;;5.47;;
27857;SDS011;16852;51.446;6.528;2023-03-01T06:38:33;8.75;;;5.45;;
27857;SDS011;16852;51.446;6.528;2023-03-01T06:40:34;10.75;;;6.45;;
27857;SDS011;16852;51.446;6.528;2023-03-01T06:42:35;11.18;;;5.75;;
27857;SDS011;16852;51.446;6.528;2023-03-01T06:44:36;9.95;;;5.97;;
27857;SDS011;16852;51.446;6.528;2023-03-01T06:46:38;11.70;;;6.95;;
27857;SDS011;16852;51.446;6.528;2023-03-01T06:48:39;13.00;;;7.10;;
27857;SDS011;16852;51.446;6.528;2023-03-01T06:50:39;11.95;;;5.95;;
27857;SDS011;16852;51.446;6.528;2023-03-01T06:52:40;12.10;;;7.07;;
27857;SDS011;16852;51.446;6.528;2023-03-01T06:54:41;10.80;;;6.55;;
27857;SDS011;16852;51.446;6.528;2023-03-01T06:56:41;17.13;;;7.03;;
27857;SDS011;16852;51.446;6.528;2023-03-01T06:58:42;13.05;;;6.55;;
27857;SDS011;16852;51.446;6.528;2023-03-01T07:00:42;12.45;;;7.07;;
27857;SDS011;16852;51.446;6.528;2023-03-01T07:02:44;13.77;;;6.82;;
27857;SDS011;16852;51.446;6.528;2023-03-01T07:04:44;12.50;;;7.15;;
27857;SDS011;16852;51.446;6.528;2023-03-01T07:06:45;10.95;;;6.63;;
27857;SDS011;16852;51.446;6.528;2023-03-01T07:08:46;13.07;;;7.15;;
27857;SDS011;16852;51.446;6.528;2023-03-01T07:10:46;14.93;;;7.57;;
27857;SDS011;16852;51.446;6.528;2023-03-01T07:12:47;12.43;;;6.72;;
27857;SDS011;16852;51.446;6.528;2023-03-01T07:14:48;11.50;;;7.13;;
27857;SDS011;16852;51.446;6.528;2023-03-01T07:16:48;10.70;;;6.40;;
27857;SDS011;16852;51.446;6.528;2023-03-01T07:18:49;13.98;;;7.32;;
27857;SDS011;16852;51.446;6.528;2023-03-01T07:20:49;11.45;;;6.65;;
27857;SDS011;16852;51.446;6.528;2023-03-01T07:22:51;13.25;;;6.35;;
27857;SDS011;16852;51.446;6.528;2023-03-01T07:24:52;9.48;;;5.93;;
27857;SDS011;16852;51.446;6.528;2023-03-01T07:26:53;10.68;;;6.47;;
27857;SDS011;16852;51.446;6.528;2023-03-01T07:28:53;11.43;;;6.20;;
27857;SDS011;16852;51.446;6.528;2023-03-01T07:30:54;13.23;;;7.03;;
27857;SDS011;16852;51.446;6.528;2023-03-01T07:32:55;13.45;;;7.28;;
27857;SDS011;16852;51.446;6.528;2023-03-01T07:34:56;11.48;;;7.35;;
27857;SDS011;16852;51.446;6.528;2023-03-01T07:36:57;13.05;;;6.28;;
27857;SDS011;16852;51.446;6.528;2023-03-01T07:38:57;12.45;;;6.22;;
27857;SDS011;16852;51.446;6.528;2023-03-01T07:41:02;10.32;;;6.40;;
27857;SDS011;16852;51.446;6.528;2023-03-01T07:43:03;10.90;;;6.05;;
27857;SDS011;16852;51.446;6.528;2023-03-01T07:45:04;13.50;;;5.93;;
27857;SDS011;16852;51.446;6.528;2023-03-01T07:47:06;9.98;;;6.68;;
27857;SDS011;16852;51.446;6.528;2023-03-01T07:49:06;12.38;;;6.68;;
27857;SDS011;16852;51.446;6.528;2023-03-01T07:51:07;10.45;;;6.32;;
27857;SDS011;16852;51.446;6.528;2023-03-01T07:53:08;13.82;;;6.55;;
27857;SDS011;16852;51.446;6.528;2023-03-01T07:55:10;10.85;;;6.78;;
27857;SDS011;16852;51.446;6.528;2023-03-01T07:57:10;10.60;;;6.28;;
27857;SDS011;16852;51.446;6.528;2023-03-01T07:59:11;11.90;;;6.55;;
27857;SDS011;16852;51.446;6.528;2023-03-01T08:01:12;13.25;;;6.60;;
27857;SDS011;16852;51.446;6.528;2023-03-01T08:03:17;13.98;;;7.13;;
27857;SDS011;16852;51.446;6.528;2023-03-01T08:05:17;12.25;;;6.78;;
27857;SDS011;16852;51.446;6.528;2023-03-01T08:07:18;11.80;;;6.40;;
27857;SDS011;16852;51.446;6.528;2023-03-01T08:09:18;12.68;;;6.72;;
27857;SDS011;16852;51.446;6.528;2023-03-01T08:11:19;12.82;;;6.65;;
27857;SDS011;16852;51.446;6.528;2023-03-01T08:13:19;16.98;;;6.65;;
27857;SDS011;16852;51.446;6.528;2023-03-01T08:15:22;10.82;;;6.53;;
27857;SDS011;16852;51.446;6.528;2023-03-01T08:17:22;11.68;;;6.95;;
27857;SDS011;16852;51.446;6.528;2023-03-01T08:19:23;15.55;;;7.63;;
27857;SDS011;16852;51.446;6.528;2023-03-01T08:21:24;13.13;;;7.15;;
27857;SDS011;16852;51.446;6.528;2023-03-01T08:23:24;15.00;;;7.65;;
27857;SDS011;16852;51.446;6.528;2023-03-01T08:25:25;25.95;;;7.97;;
27857;SDS011;16852;51.446;6.528;2023-03-01T08:27:26;14.95;;;7.57;;
27857;SDS011;16852;51.446;6.528;2023-03-01T08:29:26;15.63;;;7.93;;
27857;SDS011;16852;51.446;6.528;2023-03-01T08:31:28;10.68;;;6.68;;
27857;SDS011;16852;51.446;6.528;2023-03-01T08:33:31;15.20;;;7.97;;
27857;SDS011;16852;51.446;6.528;2023-03-01T08:35:32;16.27;;;7.32;;
27857;SDS011;16852;51.446;6.528;2023-03-01T08:37:33;15.48;;;7.32;;
27857;SDS011;16852;51.446;6.528;2023-03-01T08:39:33;10.20;;;6.13;;
27857;SDS011;16852;51.446;6.528;2023-03-01T08:41:34;16.58;;;7.35;;
27857;SDS011;16852;51.446;6.528;2023-03-01T08:43:34;14.63;;;7.22;;
27857;SDS011;16852;51.446;6.528;2023-03-01T08:45:35;12.52;;;6.60;;
27857;SDS011;16852;51.446;6.528;2023-03-01T08:47:35;13.05;;;6.72;;
27857;SDS011;16852;51.446;6.528;2023-03-01T08:49:36;13.50;;;6.82;;
27857;SDS011;16852;51.446;6.528;2023-03-01T08:51:36;15.85;;;7.18;;
27857;SDS011;16852;51.446;6.528;2023-03-01T08:53:37;11.13;;;6.43;;
27857;SDS011;16852;51.446;6.528;2023-03-01T08:55:38;10.15;;;6.03;;
27857;SDS011;16852;51.446;6.528;2023-03-01T08:57:38;13.02;;;6.60;;
27857;SDS011;16852;51.446;6.528;2023-03-01T08:59:39;10.90;;;6.90;;
27857;SDS011;16852;51.446;6.528;2023-03-01T09:01:40;15.52;;;7.57;;
27857;SDS011;16852;51.446;6.528;2023-03-01T09:03:43;11.55;;;6.50;;
27857;SDS011;16852;51.446;6.528;2023-03-01T09:05:44;12.68;;;7.03;;
27857;SDS011;16852;51.446;6.528;2023-03-01T09:07:45;15.90;;;7.43;;
27857;SDS011;16852;51.446;6.528;2023-03-01T09:09:46;10.80;;;6.43;;
27857;SDS011;16852;51.446;6.528;2023-03-01T09:11:47;14.73;;;6.60;;
27857;SDS011;16852;51.446;6.528;2023-03-01T09:13:49;14.50;;;7.55;;
27857;SDS011;16852;51.446;6.528;2023-03-01T09:15:50;13.80;;;7.53;;
27857;SDS011;16852;51.446;6.528;2023-03-01T09:17:51;12.55;;;6.50;;
27857;SDS011;16852;51.446;6.528;2023-03-01T09:19:52;11.32;;;6.43;;
27857;SDS011;16852;51.446;6.528;2023-03-01T09:21:52;12.68;;;7.25;;
27857;SDS011;16852;51.446;6.528;2023-03-01T09:23:53;13.25;;;7.65;;
27857;SDS011;16852;51.446;6.528;2023-03-01T09:25:56;10.18;;;6.40;;
27857;SDS011;16852;51.446;6.528;2023-03-01T09:27:57;11.05;;;6.75;;
27857;SDS011;16852;51.446;6.528;2023-03-01T09:29:57;16.70;;;8.50;;
27857;SDS011;16852;51.446;6.528;2023-03-01T09:31:58;13.63;;;7.70;;
27857;SDS011;16852;51.446;6.528;2023-03-01T09:33:59;17.67;;;8.05;;
27857;SDS011;16852;51.446;6.528;2023-03-01T09:36:03;12.90;;;6.90;;
27857;SDS011;16852;51.446;6.528;2023-03-01T09:38:05;11.55;;;7.18;;
27857;SDS011;16852;51.446;6.528;2023-03-01T09:40:06;14.98;;;7.50;;
27857;SDS011;16852;51.446;6.528;2023-03-01T09:42:15;13.18;;;7.32;;
27857;SDS011;16852;51.446;6.528;2023-03-01T09:46:20;14.95;;;7.60;;
27857;SDS011;16852;51.446;6.528;2023-03-01T09:48:24;13.80;;;7.75;;
27857;SDS011;16852;51.446;6.528;2023-03-01T09:50:28;19.38;;;8.13;;
27857;SDS011;16852;51.446;6.528;2023-03-01T09:54:59;18.65;;;8.65;;
27857;SDS011;16852;51.446;6.528;2023-03-01T09:57:09;18.40;;;8.45;;
27857;SDS011;16852;51.446;6.528;2023-03-01T09:59:23;15.57;;;8.18;;
27857;SDS011;16852;51.446;6.528;2023-03-01T10:06:12;13.02;;;7.35;;
27857;SDS011;16852;51.446;6.528;2023-03-01T10:08:33;17.10;;;8.13;;
27857;SDS011;16852;51.446;6.528;2023-03-01T10:10:39;14.75;;;7.65;;
27857;SDS011;16852;51.446;6.528;2023-03-01T10:12:44;11.63;;;7.15;;
27857;SDS011;16852;51.446;6.528;2023-03-01T10:17:07;12.52;;;7.38;;
27857;SDS011;16852;51.446;6.528;2023-03-01T10:19:23;17.33;;;8.07;;
27857;SDS011;16852;51.446;6.528;2023-03-01T10:21:34;12.15;;;7.65;;
27857;SDS011;16852;51.446;6.528;2023-03-01T10:23:42;12.02;;;7.30;;
27857;SDS011;16852;51.446;6.528;2023-03-01T10:28:58;12.80;;;7.38;;
27857;SDS011;16852;51.446;6.528;2023-03-01T10:30:38;13.70;;;7.30;;
27857;SDS011;16852;51.446;6.528;2023-03-01T10:32:42;17.90;;;7.70;;
27857;SDS011;16852;51.446;6.528;2023-03-01T10:34:44;13.43;;;8.25;;
27857;SDS011;16852;51.446;6.528;2023-03-01T10:36:47;13.88;;;7.88;;
27857;SDS011;16852;51.446;6.528;2023-03-01T10:38:56;16.27;;;7.80;;
27857;SDS011;16852;51.446;6.528;2023-03-01T10:40:59;13.57;;;7.43;;
27857;SDS011;16852;51.446;6.528;2023-03-01T10:43:05;18.05;;;8.02;;
27857;SDS011;16852;51.446;6.528;2023-03-01T10:45:23;16.77;;;8.52;;
27857;SDS011;16852;51.446;6.528;2023-03-01T10:47:29;15.10;;;8.02;;
27857;SDS011;16852;51.446;6.528;2023-03-01T10:49:29;15.10;;;7.60;;
27857;SDS011;16852;51.446;6.528;2023-03-01T10:51:31;17.38;;;8.35;;
27857;SDS011;16852;51.446;6.528;2023-03-01T10:53:33;13.02;;;7.60;;
27857;SDS011;16852;51.446;6.528;2023-03-01T10:55:37;12.65;;;7.25;;
27857;SDS011;16852;51.446;6.528;2023-03-01T10:57:39;12.75;;;7.28;;
27857;SDS011;16852;51.446;6.528;2023-03-01T10:59:41;13.65;;;7.68;;
27857;SDS011;16852;51.446;6.528;2023-03-01T11:01:41;13.93;;;7.28;;
27857;SDS011;16852;51.446;6.528;2023-03-01T11:03:42;13.65;;;7.10;;
27857;SDS011;16852;51.446;6.528;2023-03-01T11:05:51;13.13;;;7.30;;
27857;SDS011;16852;51.446;6.528;2023-03-01T11:07:59;14.48;;;7.40;;
27857;SDS011;16852;51.446;6.528;2023-03-01T11:10:10;13.32;;;7.45;;
27857;SDS011;16852;51.446;6.528;2023-03-01T11:12:15;17.58;;;7.63;;
27857;SDS011;16852;51.446;6.528;2023-03-01T11:14:18;12.45;;;6.97;;
27857;SDS011;16852;51.446;6.528;2023-03-01T11:16:24;13.77;;;7.15;;
27857;SDS011;16852;51.446;6.528;2023-03-01T11:18:38;18.17;;;7.72;;
27857;SDS011;16852;51.446;6.528;2023-03-01T11:20:39;15.52;;;6.93;;
27857;SDS011;16852;51.446;6.528;2023-03-01T11:22:48;10.98;;;6.60;;
27857;SDS011;16852;51.446;6.528;2023-03-01T11:24:54;16.58;;;7.32;;
27857;SDS011;16852;51.446;6.528;2023-03-01T11:26:56;14.80;;;7.57;;
27857;SDS011;16852;51.446;6.528;2023-03-01T11:29:03;12.35;;;6.75;;
27857;SDS011;16852;51.446;6.528;2023-03-01T11:31:08;13.68;;;7.00;;
27857;SDS011;16852;51.446;6.528;2023-03-01T11:35:30;12.38;;;6.25;;
27857;SDS011;16852;51.446;6.528;2023-03-01T11:40:00;12.68;;;6.30;;
27857;SDS011;16852;51.446;6.528;2023-03-01T11:42:20;11.65;;;6.78;;
27857;SDS011;16852;51.446;6.528;2023-03-01T11:44:25;12.38;;;6.15;;
27857;SDS011;16852;51.446;6.528;2023-03-01T11:50:44;11.63;;;5.90;;
27857;SDS011;16852;51.446;6.528;2023-03-01T11:52:57;13.85;;;6.85;;
27857;SDS011;16852;51.446;6.528;2023-03-01T11:55:24;14.73;;;7.13;;
27857;SDS011;16852;51.446;6.528;2023-03-01T12:07:46;12.60;;;6.82;;
27857;SDS011;16852;51.446;6.528;2023-03-01T12:12:34;14.50;;;6.72;;
27857;SDS011;16852;51.446;6.528;2023-03-01T12:17:16;16.33;;;5.78;;
27857;SDS011;16852;51.446;6.528;2023-03-01T12:20:14;9.55;;;5.70;;
27857;SDS011;16852;51.446;6.528;2023-03-01T12:22:35;11.88;;;6.15;;
27857;SDS011;16852;51.446;6.528;2023-03-01T12:27:22;12.85;;;6.50;;
27857;SDS011;16852;51.446;6.528;2023-03-01T12:31:36;11.25;;;5.50;;
27857;SDS011;16852;51.446;6.528;2023-03-01T12:33:52;16.83;;;6.00;;
27857;SDS011;16852;51.446;6.528;2023-03-01T12:52:22;13.43;;;6.10;;
27857;SDS011;16852;51.446;6.528;2023-03-01T12:54:43;9.98;;;6.22;;
27857;SDS011;16852;51.446;6.528;2023-03-01T12:56:45;9.70;;;5.85;;
27857;SDS011;16852;51.446;6.528;2023-03-01T13:06:32;12.70;;;5.88;;
27857;SDS011;16852;51.446;6.528;2023-03-01T13:11:01;10.38;;;5.35;;
27857;SDS011;16852;51.446;6.528;2023-03-01T13:13:14;9.10;;;5.32;;
27857;SDS011;16852;51.446;6.528;2023-03-01T13:17:40;8.77;;;5.57;;
27857;SDS011;16852;51.446;6.528;2023-03-01T13:19:46;9.68;;;5.28;;
27857;SDS011;16852;51.446;6.528;2023-03-01T13:21:59;8.82;;;5.13;;
27857;SDS011;16852;51.446;6.528;2023-03-01T13:23:59;8.57;;;5.47;;
27857;SDS011;16852;51.446;6.528;2023-03-01T13:28:32;8.23;;;5.13;;
27857;SDS011;16852;51.446;6.528;2023-03-01T13:32:37;7.45;;;5.00;;
27857;SDS011;16852;51.446;6.528;2023-03-01T13:34:48;8.90;;;5.57;;
27857;SDS011;16852;51.446;6.528;2023-03-01T13:36:50;11.05;;;5.88;;
27857;SDS011;16852;51.446;6.528;2023-03-01T13:42:55;8.38;;;5.15;;
27857;SDS011;16852;51.446;6.528;2023-03-01T13:44:56;9.48;;;5.95;;
27857;SDS011;16852;51.446;6.528;2023-03-01T13:46:58;9.77;;;5.70;;
27857;SDS011;16852;51.446;6.528;2023-03-01T13:49:03;9.00;;;5.90;;
27857;SDS011;16852;51.446;6.528;2023-03-01T13:51:05;12.02;;;6.47;;